createdAt,value
2019-04-03T00:01:30.734Z,22.80
2019-04-03T00:04:04.945Z,22.77
2019-04-03T00:06:38.470Z,22.76
2019-04-03T00:09:12.085Z,22.73
2019-04-03T00:11:45.788Z,22.71
2019-04-03T00:14:18.991Z,22.70
2019-04-03T00:16:52.370Z,22.69
2019-04-03T00:19:25.691Z,22.67
2019-04-03T00:21:59.063Z,22.63
2019-04-03T00:24:32.319Z,22.63
2019-04-03T00:27:05.817Z,22.60
2019-04-03T00:29:39.255Z,22.62
2019-04-03T00:32:12.671Z,22.59
2019-04-03T00:34:45.995Z,22.55
2019-04-03T00:37:19.369Z,22.58
2019-04-03T00:39:54.450Z,22.54
2019-04-03T00:42:27.760Z,22.27
2019-04-03T00:45:01.265Z,22.50
2019-04-03T00:47:34.673Z,22.48
2019-04-03T00:50:08.070Z,22.45
2019-04-03T00:52:41.244Z,22.45
2019-04-03T00:55:14.569Z,22.40
2019-04-03T00:57:48.147Z,22.38
2019-04-03T01:00:21.456Z,22.34
2019-04-03T01:02:55.037Z,22.34
2019-04-03T01:05:29.063Z,22.31
2019-04-03T01:08:02.713Z,22.29
2019-04-03T01:10:36.320Z,22.30
2019-04-03T01:13:09.860Z,22.27
2019-04-03T01:15:43.437Z,22.25
2019-04-03T01:18:17.032Z,22.23
2019-04-03T01:20:50.640Z,22.20
2019-04-03T01:23:23.970Z,22.17
2019-04-03T01:25:57.439Z,22.15
2019-04-03T01:28:30.841Z,22.16
2019-04-03T01:31:04.031Z,22.12
2019-04-03T01:33:37.441Z,22.15
2019-04-03T01:36:10.947Z,22.12
2019-04-03T01:38:44.138Z,22.11
2019-04-03T01:41:21.230Z,22.07
2019-04-03T01:43:54.395Z,22.09
2019-04-03T01:46:28.167Z,22.04
2019-04-03T01:49:01.916Z,22.03
2019-04-03T01:51:35.225Z,22.05
2019-04-03T01:54:08.655Z,21.99
2019-04-03T01:56:42.429Z,21.99
2019-04-03T01:59:16.990Z,21.97
2019-04-03T02:01:50.325Z,21.97
2019-04-03T02:04:23.940Z,21.95
2019-04-03T02:06:57.333Z,21.93
2019-04-03T02:09:31.132Z,21.88
2019-04-03T02:12:04.489Z,21.88
2019-04-03T02:14:38.019Z,21.85
2019-04-03T02:17:11.358Z,21.78
2019-04-03T02:19:44.993Z,21.80
2019-04-03T02:22:18.336Z,21.79
2019-04-03T02:24:52.059Z,21.81
2019-04-03T02:27:26.038Z,21.76
2019-04-03T02:29:59.350Z,21.73
2019-04-03T02:32:32.899Z,21.66
2019-04-03T02:35:08.235Z,21.65
2019-04-03T02:37:41.864Z,21.60
2019-04-03T02:40:15.055Z,21.62
2019-04-03T02:42:48.648Z,21.60
2019-04-03T02:45:24.183Z,21.65
2019-04-03T02:47:57.147Z,21.55
2019-04-03T02:50:30.717Z,21.54
2019-04-03T02:53:04.062Z,21.50
2019-04-03T02:55:39.750Z,21.48
2019-04-03T02:58:12.699Z,21.47
2019-04-03T03:00:46.207Z,20.84
2019-04-03T03:03:19.748Z,21.43
2019-04-03T03:05:54.738Z,21.38
2019-04-03T03:08:28.263Z,21.36
2019-04-03T03:11:02.040Z,21.35
2019-04-03T03:13:35.877Z,21.32
2019-04-03T03:16:09.322Z,21.30
2019-04-03T03:18:42.771Z,21.27
2019-04-03T03:21:16.189Z,21.26
2019-04-03T03:23:49.683Z,21.23
2019-04-03T03:26:23.110Z,21.22
2019-04-03T03:28:56.864Z,21.18
2019-04-03T03:31:59.173Z,21.20
2019-04-03T03:34:06.458Z,21.19
2019-04-03T03:36:40.601Z,21.25
2019-04-03T03:39:14.202Z,21.32
2019-04-03T03:41:47.658Z,21.37
2019-04-03T03:44:21.103Z,21.49
2019-04-03T03:46:55.104Z,21.65
2019-04-03T03:49:28.650Z,21.86
2019-04-03T03:52:04.471Z,22.09
2019-04-03T03:54:37.400Z,22.29
2019-04-03T03:57:11.107Z,22.52
2019-04-03T03:59:44.928Z,22.69
2019-04-03T04:02:18.618Z,22.87
2019-04-03T04:04:52.043Z,23.05
2019-04-03T04:07:25.966Z,23.28
2019-04-03T04:09:59.600Z,23.52
2019-04-03T04:12:33.350Z,23.71
2019-04-03T04:15:06.789Z,23.92
2019-04-03T04:17:40.443Z,24.07
2019-04-03T04:20:13.890Z,24.26
2019-04-03T04:22:50.431Z,24.40
2019-04-03T04:25:23.630Z,24.55
2019-04-03T04:27:57.090Z,24.64
2019-04-03T04:30:30.762Z,24.72
2019-04-03T04:33:04.319Z,24.77
2019-04-03T04:35:38.095Z,24.80
2019-04-03T04:38:11.549Z,24.81
2019-04-03T04:40:45.057Z,24.81
2019-04-03T04:43:19.440Z,24.78
2019-04-03T04:45:52.994Z,24.86
2019-04-03T04:48:26.663Z,24.82
2019-04-03T04:51:00.086Z,24.85
2019-04-03T04:53:33.418Z,24.80
2019-04-03T04:56:07.417Z,24.78
2019-04-03T04:58:43.046Z,24.78
2019-04-03T05:01:17.855Z,24.75
2019-04-03T05:03:51.958Z,24.74
2019-04-03T05:06:28.646Z,24.74
2019-04-03T05:09:03.237Z,24.70
2019-04-03T05:11:39.094Z,24.64
2019-04-03T05:14:12.159Z,24.61
2019-04-03T05:16:45.633Z,24.62
2019-04-03T05:19:19.625Z,24.57
2019-04-03T05:21:53.522Z,24.52
2019-04-03T05:24:28.904Z,24.50
2019-04-03T05:27:03.425Z,24.47
2019-04-03T05:29:37.220Z,24.40
2019-04-03T05:32:10.888Z,24.37
2019-04-03T05:34:44.744Z,24.35
2019-04-03T05:37:20.239Z,24.34
2019-04-03T05:39:55.671Z,24.29
2019-04-03T05:42:29.248Z,24.27
2019-04-03T05:45:04.936Z,24.20
2019-04-03T05:47:39.283Z,23.88
2019-04-03T05:50:14.138Z,24.16
2019-04-03T05:52:47.622Z,24.08
2019-04-03T05:55:21.052Z,24.06
2019-04-03T05:57:54.396Z,23.91
2019-04-03T06:00:27.871Z,23.77
2019-04-03T06:03:01.361Z,23.85
2019-04-03T06:05:34.918Z,23.70
2019-04-03T06:08:10.208Z,23.66
2019-04-03T06:10:44.011Z,23.67
2019-04-03T06:13:17.636Z,23.69
2019-04-03T06:15:53.212Z,23.64
2019-04-03T06:18:27.018Z,23.63
2019-04-03T06:21:01.631Z,23.61
2019-04-03T06:23:35.200Z,23.56
2019-04-03T06:26:08.582Z,23.64
2019-04-03T06:28:43.042Z,23.71
2019-04-03T06:31:18.985Z,23.89
2019-04-03T06:33:52.437Z,24.00
2019-04-03T06:36:26.021Z,24.24
2019-04-03T06:38:59.773Z,24.37
2019-04-03T06:41:33.245Z,24.56
2019-04-03T06:44:06.644Z,24.75
2019-04-03T06:46:40.764Z,24.89
2019-04-03T06:49:14.407Z,25.05
2019-04-03T06:51:49.423Z,25.23
2019-04-03T06:54:23.283Z,25.42
2019-04-03T06:56:56.956Z,25.01
2019-04-03T06:59:30.545Z,25.73
2019-04-03T07:02:04.322Z,25.84
2019-04-03T07:04:38.814Z,25.43
2019-04-03T07:07:12.768Z,26.02
2019-04-03T07:09:46.634Z,26.08
2019-04-03T07:12:20.223Z,26.17
2019-04-03T07:14:55.456Z,26.28
2019-04-03T07:17:31.407Z,26.34
2019-04-03T07:20:13.459Z,26.40
2019-04-03T07:22:40.981Z,26.47
2019-04-03T07:25:14.869Z,26.49
2019-04-03T07:27:48.356Z,26.54
2019-04-03T07:30:22.429Z,26.65
2019-04-03T07:32:57.913Z,26.68
2019-04-03T07:35:31.453Z,26.67
2019-04-03T07:38:04.802Z,26.73
2019-04-03T07:40:39.895Z,26.74
2019-04-03T07:43:13.841Z,26.78
2019-04-03T07:45:47.603Z,26.77
2019-04-03T07:48:21.038Z,26.79
2019-04-03T07:50:55.241Z,26.79
2019-04-03T07:53:29.326Z,26.69
2019-04-03T07:56:03.123Z,26.72
2019-04-03T07:58:36.570Z,26.69
2019-04-03T08:01:11.096Z,26.68
2019-04-03T08:03:45.187Z,26.58
2019-04-03T08:06:18.830Z,26.56
2019-04-03T08:09:05.850Z,26.42
2019-04-03T08:11:28.056Z,26.42
2019-04-03T08:14:01.517Z,26.35
2019-04-03T08:16:35.231Z,26.23
2019-04-03T08:19:08.843Z,26.20
2019-04-03T08:21:43.308Z,26.22
2019-04-03T08:24:16.893Z,26.30
2019-04-03T08:26:51.980Z,26.34
2019-04-03T08:29:25.843Z,26.40
2019-04-03T08:31:59.251Z,26.46
2019-04-03T08:34:32.766Z,26.45
2019-04-03T08:37:06.171Z,26.42
2019-04-03T08:39:39.737Z,26.41
2019-04-03T08:42:13.365Z,26.42
2019-04-03T08:44:46.821Z,26.46
2019-04-03T08:47:20.191Z,26.45
2019-04-03T08:49:56.426Z,26.47
2019-04-03T08:52:28.621Z,26.46
2019-04-03T08:55:01.975Z,26.38
2019-04-03T08:57:37.698Z,26.39
2019-04-03T09:00:11.415Z,26.43
2019-04-03T09:02:44.843Z,26.44
2019-04-03T09:05:19.674Z,26.31
2019-04-03T09:07:56.113Z,26.31
2019-04-03T09:10:32.667Z,26.24
2019-04-03T09:13:17.004Z,26.28
2019-04-03T09:15:41.925Z,26.30
2019-04-03T09:18:15.401Z,26.33
2019-04-03T09:20:49.037Z,26.30
2019-04-03T09:23:24.627Z,26.27
2019-04-03T09:25:57.753Z,26.23
2019-04-03T09:28:31.082Z,26.22
2019-04-03T09:31:04.580Z,26.07
2019-04-03T09:33:37.865Z,26.08
2019-04-03T09:36:11.347Z,26.05
2019-04-03T09:38:44.937Z,25.94
2019-04-03T09:41:19.671Z,25.94
2019-04-03T09:43:54.633Z,25.97
2019-04-03T09:46:30.471Z,25.92
2019-04-03T09:49:03.477Z,25.99
2019-04-03T09:51:37.247Z,25.96
2019-04-03T09:54:10.873Z,25.97
2019-04-03T09:56:57.197Z,25.90
2019-04-03T09:59:19.506Z,25.80
2019-04-03T10:01:52.856Z,25.78
2019-04-03T10:04:27.855Z,25.82
2019-04-03T10:07:02.285Z,25.81
2019-04-03T10:09:38.350Z,25.83
2019-04-03T10:12:11.366Z,25.82
2019-04-03T10:14:46.110Z,25.89
2019-04-03T10:17:19.756Z,25.88
2019-04-03T10:19:53.129Z,25.87
2019-04-03T10:22:26.643Z,25.87
2019-04-03T10:25:00.665Z,25.84
2019-04-03T10:27:35.718Z,25.81
2019-04-03T10:30:13.162Z,25.75
2019-04-03T10:32:46.851Z,25.68
2019-04-03T10:35:20.542Z,25.59
2019-04-03T10:37:54.099Z,25.72
2019-04-03T10:40:27.515Z,25.74
2019-04-03T10:43:02.822Z,25.71
2019-04-03T10:45:36.133Z,25.61
2019-04-03T10:48:09.472Z,25.66
2019-04-03T10:50:42.821Z,25.61
2019-04-03T10:53:17.886Z,25.54
2019-04-03T10:55:51.398Z,25.53
2019-04-03T10:58:25.030Z,25.46
2019-04-03T11:00:59.103Z,25.44
2019-04-03T11:03:33.945Z,25.45
2019-04-03T11:06:08.985Z,25.41
2019-04-03T11:08:42.337Z,25.45
2019-04-03T11:11:15.955Z,25.43
2019-04-03T11:13:49.775Z,25.39
2019-04-03T11:16:23.193Z,25.34
2019-04-03T11:18:59.973Z,25.36
2019-04-03T11:21:32.209Z,25.34
2019-04-03T11:24:06.673Z,25.31
2019-04-03T11:26:41.831Z,25.32
2019-04-03T11:29:15.187Z,25.29
2019-04-03T11:31:48.704Z,25.28
2019-04-03T11:34:22.287Z,25.33
2019-04-03T11:36:55.742Z,25.32
2019-04-03T11:39:29.191Z,25.32
2019-04-03T11:42:03.045Z,25.25
2019-04-03T11:44:36.579Z,25.20
2019-04-03T11:47:12.355Z,25.15
2019-04-03T11:49:45.012Z,25.09
2019-04-03T11:52:18.481Z,25.05
2019-04-03T11:54:53.012Z,25.03
2019-04-03T11:57:27.309Z,25.01
2019-04-03T12:00:01.143Z,25.00
2019-04-03T12:02:34.536Z,25.01
2019-04-03T12:05:08.018Z,25.01
2019-04-03T12:07:41.337Z,25.05
2019-04-03T12:10:14.874Z,25.04
2019-04-03T12:12:48.237Z,25.05
2019-04-03T12:15:22.380Z,25.08
2019-04-03T12:17:56.144Z,25.02
2019-04-03T12:20:29.865Z,25.04
2019-04-03T12:23:05.288Z,25.04
2019-04-03T12:25:40.584Z,24.99
2019-04-03T12:28:17.768Z,24.92
2019-04-03T12:30:49.619Z,24.82
2019-04-03T12:33:23.322Z,24.77
2019-04-03T12:35:56.694Z,24.70
2019-04-03T12:38:31.067Z,24.63
2019-04-03T12:41:05.314Z,24.60
2019-04-03T12:43:38.883Z,24.54
2019-04-03T12:46:12.548Z,24.46
2019-04-03T12:48:46.129Z,24.45
2019-04-03T12:51:20.412Z,24.49
2019-04-03T12:53:54.383Z,24.45
2019-04-03T12:56:30.026Z,24.39
2019-04-03T12:59:03.279Z,24.39
2019-04-03T13:01:36.662Z,24.29
2019-04-03T13:04:10.413Z,24.37
2019-04-03T13:06:43.722Z,24.47
2019-04-03T13:09:17.443Z,24.54
2019-04-03T13:11:52.471Z,24.59
2019-04-03T13:14:27.206Z,24.62
2019-04-03T13:17:01.566Z,24.61
2019-04-03T13:19:35.438Z,24.73
2019-04-03T13:22:10.972Z,24.76
2019-04-03T13:24:44.355Z,25.04
2019-04-03T13:27:18.776Z,25.05
2019-04-03T13:29:52.359Z,25.25
2019-04-03T13:32:25.802Z,25.48
2019-04-03T13:34:59.481Z,25.60
2019-04-03T13:37:33.271Z,25.82
2019-04-03T13:40:07.718Z,26.19
2019-04-03T13:42:41.228Z,26.38
2019-04-03T13:45:14.997Z,26.31
2019-04-03T13:47:49.333Z,26.05
2019-04-03T13:50:23.578Z,25.83
2019-04-03T13:52:58.093Z,25.64
2019-04-03T13:55:34.528Z,25.46
2019-04-03T13:58:07.044Z,25.32
2019-04-03T14:00:40.842Z,25.25
2019-04-03T14:03:17.818Z,25.25
2019-04-03T14:05:50.428Z,25.16
2019-04-03T14:08:24.052Z,25.09
2019-04-03T14:10:58.846Z,25.21
2019-04-03T14:13:32.449Z,25.41
2019-04-03T14:16:18.631Z,25.55
2019-04-03T14:18:42.383Z,25.47
2019-04-03T14:21:15.702Z,25.34
2019-04-03T14:23:49.093Z,25.25
2019-04-03T14:26:22.628Z,25.32
2019-04-03T14:28:55.992Z,25.33
2019-04-03T14:31:36.085Z,25.30
2019-04-03T14:34:05.154Z,25.25
2019-04-03T14:36:38.621Z,25.15
2019-04-03T14:39:12.336Z,25.19
2019-04-03T14:41:45.841Z,25.18
2019-04-03T14:44:19.638Z,25.23
2019-04-03T14:46:53.345Z,25.22
2019-04-03T14:49:26.714Z,25.26
2019-04-03T14:52:00.069Z,25.30
2019-04-03T14:54:33.544Z,25.34
2019-04-03T14:57:17.840Z,25.26
2019-04-03T14:59:43.180Z,25.28
2019-04-03T15:02:16.865Z,25.25
2019-04-03T15:04:50.282Z,25.23
2019-04-03T15:07:24.086Z,25.27
2019-04-03T15:09:59.437Z,25.18
2019-04-03T15:12:32.612Z,25.21
2019-04-03T15:15:06.115Z,25.17
2019-04-03T15:17:39.993Z,25.15
2019-04-03T15:20:13.390Z,25.06
2019-04-03T15:22:47.313Z,25.10
2019-04-03T15:25:20.908Z,25.06
2019-04-03T15:27:54.425Z,25.02
2019-04-03T15:30:29.250Z,25.02
2019-04-03T15:33:02.860Z,24.98
2019-04-03T15:35:36.257Z,24.96
2019-04-03T15:38:13.411Z,24.92
2019-04-03T15:40:46.743Z,24.86
2019-04-03T15:43:20.560Z,24.80
2019-04-03T15:45:56.589Z,24.80
2019-04-03T15:48:30.226Z,24.76
2019-04-03T15:51:06.264Z,24.71
2019-04-03T15:53:39.459Z,24.72
2019-04-03T15:56:15.573Z,24.65
2019-04-03T15:58:51.524Z,24.57
2019-04-03T16:01:26.581Z,24.44
2019-04-03T16:04:00.234Z,24.45
2019-04-03T16:06:35.954Z,24.40
2019-04-03T16:09:09.089Z,24.35
2019-04-03T16:11:42.643Z,24.27
2019-04-03T16:14:16.878Z,24.24
2019-04-03T16:16:53.948Z,24.22
2019-04-03T16:19:27.522Z,24.21
2019-04-03T16:22:02.716Z,24.17
2019-04-03T16:24:36.393Z,24.10
2019-04-03T16:27:09.845Z,24.10
2019-04-03T16:29:43.753Z,24.14
2019-04-03T16:32:26.926Z,24.14
2019-04-03T16:35:06.196Z,24.16
2019-04-03T16:37:42.729Z,23.84
2019-04-03T16:40:18.060Z,24.06
2019-04-03T16:42:52.983Z,24.03
2019-04-03T16:45:27.210Z,23.99
2019-04-03T16:48:00.943Z,24.07
2019-04-03T16:50:34.806Z,24.10
2019-04-03T16:53:08.224Z,24.03
2019-04-03T16:55:41.540Z,24.02
2019-04-03T16:58:14.942Z,23.98
2019-04-03T17:00:48.299Z,23.93
2019-04-03T17:03:22.340Z,24.00
2019-04-03T17:05:55.805Z,24.09
2019-04-03T17:08:29.398Z,24.14
2019-04-03T17:11:03.117Z,24.18
2019-04-03T17:13:36.537Z,24.02
2019-04-03T17:16:16.255Z,24.12
2019-04-03T17:18:49.974Z,24.10
2019-04-03T17:21:23.878Z,24.05
2019-04-03T17:23:57.938Z,23.99
2019-04-03T17:26:32.734Z,23.92
2019-04-03T17:29:06.908Z,23.86
2019-04-03T17:31:58.167Z,23.82
2019-04-03T17:34:32.050Z,23.82
2019-04-03T17:37:05.446Z,23.79
2019-04-03T17:39:38.863Z,23.79
2019-04-03T17:42:12.284Z,23.79
2019-04-03T17:44:53.570Z,23.72
2019-04-03T17:47:30.253Z,23.72
2019-04-03T17:50:09.276Z,23.70
2019-04-03T17:52:46.563Z,23.73
2019-04-03T17:55:20.030Z,23.76
2019-04-03T17:57:53.443Z,23.73
2019-04-03T18:00:26.931Z,23.76
2019-04-03T18:03:00.414Z,23.73
2019-04-03T18:05:34.179Z,23.75
2019-04-03T18:08:09.094Z,23.74
2019-04-03T18:10:43.312Z,23.66
2019-04-03T18:13:17.486Z,23.66
2019-04-03T18:15:51.060Z,23.64
2019-04-03T18:18:24.868Z,23.56
2019-04-03T18:20:58.210Z,23.50
2019-04-03T18:23:31.545Z,23.47
2019-04-03T18:26:04.944Z,23.43
2019-04-03T18:28:38.556Z,23.45
2019-04-03T18:31:13.578Z,23.41
2019-04-03T18:33:48.771Z,23.01
2019-04-03T18:36:27.305Z,23.40
2019-04-03T18:39:00.250Z,23.41
2019-04-03T18:41:37.624Z,23.38
2019-04-03T18:44:21.510Z,23.44
2019-04-03T18:46:50.149Z,23.42
2019-04-03T18:49:23.636Z,23.43
2019-04-03T18:51:57.175Z,23.40
2019-04-03T18:54:30.795Z,23.35
2019-04-03T18:57:04.687Z,23.28
2019-04-03T18:59:38.083Z,23.22
2019-04-03T19:02:11.397Z,23.21
2019-04-03T19:04:44.881Z,23.19
2019-04-03T19:07:20.240Z,23.18
2019-04-03T19:10:06.058Z,23.23
2019-04-03T19:12:35.910Z,23.24
2019-04-03T19:15:06.020Z,23.27
2019-04-03T19:17:40.890Z,23.20
2019-04-03T19:20:14.197Z,23.26
2019-04-03T19:22:47.582Z,23.34
2019-04-03T19:25:21.063Z,23.32
2019-04-03T19:27:54.267Z,23.33
2019-04-03T19:30:28.722Z,23.31
2019-04-03T19:33:02.214Z,23.28
2019-04-03T19:35:35.602Z,23.25
2019-04-03T19:38:08.974Z,23.20
2019-04-03T19:40:42.572Z,23.20
2019-04-03T19:43:15.964Z,23.18
2019-04-03T19:45:51.763Z,23.14
2019-04-03T19:48:26.255Z,23.09
2019-04-03T19:51:02.725Z,23.06
2019-04-03T19:53:35.890Z,23.00
2019-04-03T19:56:09.705Z,22.43
2019-04-03T19:58:43.386Z,22.97
2019-04-03T20:01:16.858Z,22.97
2019-04-03T20:03:50.526Z,23.06
2019-04-03T20:06:23.754Z,23.20
2019-04-03T20:08:57.274Z,23.27
2019-04-03T20:11:34.097Z,23.27
2019-04-03T20:14:11.331Z,23.21
2019-04-03T20:16:43.527Z,23.10
2019-04-03T20:19:16.854Z,23.24
2019-04-03T20:21:50.282Z,23.19
2019-04-03T20:24:25.359Z,23.10
2019-04-03T20:26:58.983Z,23.03
2019-04-03T20:29:32.380Z,23.02
2019-04-03T20:32:07.046Z,23.13
2019-04-03T20:34:40.818Z,23.13
2019-04-03T20:37:14.405Z,23.13
2019-04-03T20:39:47.721Z,23.10
2019-04-03T20:42:21.110Z,23.10
2019-04-03T20:44:54.611Z,23.07
2019-04-03T20:47:27.972Z,23.08
2019-04-03T20:50:01.519Z,23.10
2019-04-03T20:52:35.080Z,23.00
2019-04-03T20:55:08.378Z,23.05
2019-04-03T20:57:54.987Z,23.08
2019-04-03T21:00:19.165Z,23.06
2019-04-03T21:02:52.798Z,22.96
2019-04-03T21:05:26.108Z,22.94
2019-04-03T21:07:59.587Z,22.94
2019-04-03T21:10:32.947Z,22.90
2019-04-03T21:13:06.886Z,22.88
2019-04-03T21:15:41.737Z,22.89
2019-04-03T21:18:15.135Z,22.77
2019-04-03T21:20:48.648Z,22.76
2019-04-03T21:23:22.108Z,22.80
2019-04-03T21:25:55.637Z,22.77
2019-04-03T21:28:29.098Z,22.72
2019-04-03T21:31:02.432Z,22.72
2019-04-03T21:33:35.915Z,22.59
2019-04-03T21:36:09.791Z,22.60
2019-04-03T21:38:43.188Z,22.57
2019-04-03T21:41:16.780Z,22.59
2019-04-03T21:43:50.276Z,22.60
2019-04-03T21:46:23.773Z,22.54
2019-04-03T21:48:57.142Z,22.53
2019-04-03T21:51:30.703Z,22.53
2019-04-03T21:54:04.577Z,22.48
2019-04-03T21:56:37.931Z,22.44
2019-04-03T21:59:11.531Z,22.40
2019-04-03T22:01:45.432Z,21.82
2019-04-03T22:04:20.925Z,22.38
2019-04-03T22:06:57.607Z,22.37
2019-04-03T22:09:30.738Z,22.35
2019-04-03T22:12:06.019Z,22.35
2019-04-03T22:14:40.976Z,22.32
2019-04-03T22:17:15.203Z,22.35
2019-04-03T22:19:48.548Z,22.34
2019-04-03T22:22:22.425Z,22.30
2019-04-03T22:24:56.132Z,22.26
2019-04-03T22:27:29.529Z,22.19
2019-04-03T22:30:03.128Z,22.15
2019-04-03T22:32:39.167Z,22.09
2019-04-03T22:35:12.689Z,22.05
2019-04-03T22:37:46.175Z,22.02
2019-04-03T22:40:20.078Z,22.01
2019-04-03T22:42:53.392Z,21.98
2019-04-03T22:45:26.860Z,21.96
2019-04-03T22:48:00.133Z,21.96
2019-04-03T22:50:35.318Z,21.91
2019-04-03T22:53:10.760Z,21.91
2019-04-03T22:55:46.526Z,21.90
2019-04-03T22:58:21.648Z,21.88
2019-04-03T23:00:55.341Z,21.83
2019-04-03T23:03:28.906Z,21.80
2019-04-03T23:06:02.850Z,21.78
2019-04-03T23:08:36.350Z,21.74
2019-04-03T23:11:09.773Z,21.75
2019-04-03T23:13:43.044Z,21.73
2019-04-03T23:16:16.657Z,21.13
2019-04-03T23:18:50.211Z,21.72
2019-04-03T23:21:24.250Z,21.71
2019-04-03T23:23:58.436Z,21.67
2019-04-03T23:26:32.829Z,21.64
2019-04-03T23:29:07.304Z,21.62
2019-04-03T23:31:40.505Z,21.64
2019-04-03T23:34:13.918Z,21.61
2019-04-03T23:36:47.216Z,21.63
2019-04-03T23:39:20.798Z,21.60
2019-04-03T23:41:54.213Z,21.56
2019-04-03T23:44:27.503Z,21.54
2019-04-03T23:47:00.980Z,21.52
2019-04-03T23:49:34.590Z,21.50
2019-04-03T23:52:07.930Z,21.49
2019-04-03T23:54:41.376Z,21.49
2019-04-03T23:57:14.824Z,21.49
2019-04-03T23:59:48.405Z,21.47
